Time;durP1;ratioP1;P1;durP2;ratioP2;P2;SDS_P1;SDS_P2;PMS_P1;PMS_P2;Temp;Humidity;BMP_temperature;BMP_pressure;BME280_temperature;BME280_humidity;BME280_pressure;Samples;Min_cycle;Max_cycle;Signal;HPM_P1;HPM_P2
2023/04/18 00:01:05;;;;;;;0.00;0.00;;;;;;;6.59;92.80;101584.41;6275989;22;20319;-73
2023/04/18 00:03:30;;;;;;;0.00;0.00;;;;;;;6.60;93.67;101580.66;6244928;22;20082;-74
2023/04/18 00:05:56;;;;;;;0.00;0.00;;;;;;;6.66;93.55;101576.25;6249956;22;20031;-73
2023/04/18 00:08:22;;;;;;;0.00;0.00;;;;;;;6.76;93.55;101584.81;6250177;22;20003;-73
2023/04/18 00:10:47;;;;;;;0.00;0.00;;;;;;;6.78;93.84;101585.44;6268676;22;20440;-73
2023/04/18 00:13:13;;;;;;;0.00;0.00;;;;;;;6.76;94.06;101584.81;6218744;22;20003;-72
2023/04/18 00:15:40;;;;;;;0.00;0.00;;;;;;;6.74;93.88;101586.06;6241439;22;20014;-73
2023/04/18 00:18:07;;;;;;;0.00;0.00;;;;;;;6.76;94.34;101601.13;6220098;22;20315;-73
2023/04/18 00:20:32;;;;;;;0.00;0.00;;;;;;;6.75;94.06;101598.63;6267131;22;20057;-73
2023/04/18 00:22:59;;;;;;;0.00;0.00;;;;;;;6.70;94.21;101593.81;6245913;22;20007;-74
2023/04/18 00:25:25;;;;;;;0.00;0.00;;;;;;;6.54;94.38;101572.50;6219572;22;20015;-74
2023/04/18 00:27:50;;;;;;;0.00;0.00;;;;;;;6.81;94.68;101600.47;6217405;22;20004;-72
2023/04/18 00:30:16;;;;;;;0.00;0.00;;;;;;;7.02;93.97;101602.09;6244689;22;20008;-74
2023/04/18 00:32:41;;;;;;;0.00;0.00;;;;;;;7.24;94.30;101596.38;6218008;22;20008;-73
2023/04/18 00:35:07;;;;;;;0.00;0.00;;;;;;;7.36;93.67;101589.22;6222434;22;20022;-75
2023/04/18 00:37:32;;;;;;;0.00;0.00;;;;;;;7.47;93.10;101591.25;6218011;22;20008;-73
2023/04/18 00:39:58;;;;;;;0.00;0.00;;;;;;;7.56;92.61;101586.38;6195886;22;20018;-74
2023/04/18 00:42:24;;;;;;;0.00;0.00;;;;;;;7.53;92.02;101572.41;6247277;22;20398;-74
2023/04/18 00:44:50;;;;;;;0.00;0.00;;;;;;;7.44;91.67;101574.53;6220229;22;20375;-73
2023/04/18 00:47:18;;;;;;;0.00;0.00;;;;;;;7.30;92.08;101585.50;6273247;22;20000;-73
2023/04/18 00:49:44;;;;;;;0.00;0.00;;;;;;;7.14;92.54;101578.63;6244920;22;20015;-73
2023/04/18 00:52:15;;;;;;;0.00;0.00;;;;;;;7.09;92.44;101578.44;6220774;22;20414;-73
2023/04/18 00:54:41;;;;;;;0.00;0.00;;;;;;;7.11;92.98;101581.78;6274157;22;20011;-73
2023/04/18 00:57:07;;;;;;;0.00;0.00;;;;;;;7.16;93.55;101584.69;6242561;22;20004;-74
2023/04/18 00:59:36;;;;;;;0.00;0.00;;;;;;;7.28;92.57;101581.31;6246455;22;20007;-74
2023/04/18 01:02:02;;;;;;;0.00;0.00;;;;;;;7.38;92.44;101581.69;6243175;22;20091;-74
2023/04/18 01:04:28;;;;;;;0.00;0.00;;;;;;;7.38;91.75;101559.91;6247392;22;20478;-74
2023/04/18 01:06:54;;;;;;;0.00;0.00;;;;;;;7.49;91.52;101570.13;6216994;22;20030;-73
2023/04/18 01:09:22;;;;;;;0.00;0.00;;;;;;;7.46;91.41;101556.94;6196864;22;20082;-73
2023/04/18 01:11:47;;;;;;;0.00;0.00;;;;;;;7.38;91.20;101549.00;6256289;22;20038;-74
2023/04/18 01:14:12;;;;;;;0.00;0.00;;;;;;;7.34;91.65;101569.53;6265392;22;20008;-74
2023/04/18 01:16:38;;;;;;;0.00;0.00;;;;;;;7.18;91.65;101570.03;6246680;22;20114;-73
2023/04/18 01:19:04;;;;;;;0.00;0.00;;;;;;;7.06;92.16;101567.97;6266769;22;20492;-74
2023/04/18 01:21:34;;;;;;;0.00;0.00;;;;;;;7.07;93.27;101553.34;6272644;22;20007;-74
2023/04/18 01:24:07;;;;;;;0.00;0.00;;;;;;;7.12;92.68;101561.69;6267929;22;20007;-74
2023/04/18 01:26:32;;;;;;;0.00;0.00;;;;;;;7.04;92.20;101553.78;6272643;22;20057;-74
2023/04/18 01:28:58;;;;;;;0.00;0.00;;;;;;;7.12;93.12;101555.41;6242853;22;20007;-74
2023/04/18 01:31:23;;;;;;;0.00;0.00;;;;;;;7.12;92.04;101556.25;6246359;22;20094;-74
2023/04/18 01:33:48;;;;;;;0.00;0.00;;;;;;;7.07;92.37;101553.34;6220726;22;20004;-72
2023/04/18 01:36:14;;;;;;;0.00;0.00;;;;;;;7.11;92.98;101554.59;6243719;22;20715;-74
2023/04/18 01:38:39;;;;;;;0.00;0.00;;;;;;;7.04;92.79;101548.34;6243212;22;20839;-73
2023/04/18 01:41:05;;;;;;;0.08;0.08;;;;;;;7.01;92.65;101548.78;6243282;22;20011;-74
2023/04/18 01:43:30;;;;;;;0.00;0.00;;;;;;;7.04;93.21;101559.22;6245650;22;20007;-74
2023/04/18 01:45:55;;;;;;;0.00;0.00;;;;;;;6.97;93.12;101555.69;6268213;22;20053;-74
2023/04/18 01:48:21;;;;;;;0.00;0.00;;;;;;;6.95;93.79;101555.03;6271007;22;20004;-74
2023/04/18 01:50:46;;;;;;;0.00;0.00;;;;;;;6.84;93.52;101539.41;6243636;22;20072;-73
2023/04/18 01:53:12;;;;;;;0.00;0.00;;;;;;;6.76;93.77;101538.59;6241948;22;20304;-72
2023/04/18 01:55:37;;;;;;;0.00;0.00;;;;;;;6.68;93.96;101538.81;6243610;22;20087;-74
2023/04/18 01:58:02;;;;;;;0.00;0.00;;;;;;;6.60;94.12;101541.75;6270831;22;20042;-74
2023/04/18 02:00:28;;;;;;;0.00;0.00;;;;;;;6.66;94.26;101545.50;6267650;22;20373;-73
2023/04/18 02:02:53;;;;;;;0.00;0.00;;;;;;;6.65;93.89;101544.69;6244681;22;20010;-74
2023/04/18 02:05:19;;;;;;;0.00;0.00;;;;;;;6.74;94.97;101553.44;6268210;22;20472;-74
2023/04/18 02:07:46;;;;;;;0.00;0.00;;;;;;;6.77;94.51;101542.13;6244261;22;20091;-74
2023/04/18 02:10:12;;;;;;;0.00;0.00;;;;;;;6.78;94.19;101549.25;6242221;22;20012;-74
2023/04/18 02:12:37;;;;;;;0.00;0.00;;;;;;;6.66;94.80;101546.34;6268794;22;20741;-74
2023/04/18 02:15:03;;;;;;;0.00;0.00;;;;;;;6.58;94.35;101554.72;6271125;22;20054;-73
2023/04/18 02:17:29;;;;;;;0.00;0.00;;;;;;;6.43;94.46;101539.50;6267472;22;20007;-73
2023/04/18 02:19:54;;;;;;;0.00;0.00;;;;;;;6.37;95.03;101531.34;6245000;22;20012;-74
2023/04/18 02:22:20;;;;;;;0.00;0.00;;;;;;;6.34;94.75;101526.31;6243434;22;20330;-73
2023/04/18 02:24:45;;;;;;;0.00;0.00;;;;;;;6.39;94.80;101524.66;6269827;22;20036;-73
2023/04/18 02:27:10;;;;;;;0.00;0.00;;;;;;;6.41;95.10;101528.00;6243407;22;20000;-74
2023/04/18 02:29:36;;;;;;;0.00;0.00;;;;;;;6.49;94.89;101526.94;6244832;22;20004;-74
2023/04/18 02:32:02;;;;;;;0.00;0.00;;;;;;;6.52;94.38;101520.25;6271223;22;20034;-72
2023/04/18 02:34:27;;;;;;;0.00;0.00;;;;;;;6.52;94.81;101526.50;6268170;22;20014;-73
2023/04/18 02:36:53;;;;;;;0.00;0.00;;;;;;;6.53;94.57;101530.09;6246027;22;20514;-73
2023/04/18 02:39:19;;;;;;;0.00;0.00;;;;;;;6.49;93.66;101534.25;6241812;22;20039;-73
2023/04/18 02:41:45;;;;;;;0.00;0.00;;;;;;;6.32;94.61;101515.66;6271799;22;20038;-73
2023/04/18 02:44:10;;;;;;;0.00;0.00;;;;;;;6.24;94.98;101522.16;6293830;22;20073;-73
2023/04/18 02:46:35;;;;;;;0.00;0.00;;;;;;;6.19;94.35;101524.69;6242470;22;20031;-73
2023/04/18 02:49:01;;;;;;;0.00;0.00;;;;;;;6.17;95.15;101529.47;6245415;22;20011;-72
2023/04/18 02:51:26;;;;;;;0.00;0.00;;;;;;;6.18;95.49;101523.00;6243450;22;20008;-72
2023/04/18 02:53:53;;;;;;;0.00;0.00;;;;;;;6.17;95.07;101532.19;6270271;22;20007;-73
2023/04/18 02:56:20;;;;;;;0.00;0.00;;;;;;;6.03;95.29;101498.78;6242770;22;20016;-73
2023/04/18 02:58:46;;;;;;;0.00;0.00;;;;;;;6.36;94.94;101535.13;6269999;22;20011;-74
2023/04/18 03:01:11;;;;;;;0.00;0.00;;;;;;;6.51;95.09;101540.31;6296408;22;20456;-73
2023/04/18 03:03:37;;;;;;;0.00;0.00;;;;;;;6.71;93.89;101538.38;6271142;22;20119;-73
2023/04/18 03:06:02;;;;;;;0.00;0.00;;;;;;;6.80;93.76;101548.00;6269081;22;20007;-73
2023/04/18 03:08:28;;;;;;;0.00;0.00;;;;;;;6.84;93.43;101525.81;6269860;22;20014;-74
2023/04/18 03:10:54;;;;;;;0.00;0.00;;;;;;;6.96;93.59;101534.97;6272165;22;20334;-74
2023/04/18 03:13:19;;;;;;;0.00;0.00;;;;;;;7.01;93.23;101532.44;6224672;22;20003;-73
2023/04/18 03:15:45;;;;;;;0.00;0.00;;;;;;;7.14;92.72;101543.28;6273675;22;20068;-73
2023/04/18 03:18:11;;;;;;;0.00;0.00;;;;;;;7.24;93.09;101541.97;6223288;22;20022;-73
2023/04/18 03:20:37;;;;;;;0.03;0.03;;;;;;;7.28;92.23;101529.59;6276470;22;20084;-73
2023/04/18 03:23:02;;;;;;;0.00;0.00;;;;;;;7.44;91.87;101542.69;6270040;22;20045;-73
2023/04/18 03:25:27;;;;;;;0.00;0.00;;;;;;;7.46;91.81;101532.44;6302651;22;20082;-73
2023/04/18 03:27:53;;;;;;;0.00;0.00;;;;;;;7.57;91.32;101535.53;6274308;22;20014;-73
2023/04/18 03:30:19;;;;;;;0.00;0.00;;;;;;;7.64;91.44;101541.75;6249636;22;20039;-73
2023/04/18 03:32:45;;;;;;;0.00;0.00;;;;;;;7.70;91.26;101535.44;6276330;22;20007;-73
2023/04/18 03:35:11;;;;;;;0.00;0.00;;;;;;;7.81;91.32;101532.00;6247328;22;20448;-73
2023/04/18 03:37:36;;;;;;;0.00;0.00;;;;;;;7.90;91.03;101545.34;6276102;22;20355;-73
2023/04/18 03:40:04;;;;;;;0.00;0.00;;;;;;;7.92;90.70;101529.63;6271962;22;20007;-73
2023/04/18 03:42:29;;;;;;;0.00;0.00;;;;;;;7.96;90.83;101533.59;6249952;22;20326;-73
2023/04/18 03:44:55;;;;;;;0.00;0.00;;;;;;;7.95;90.48;101532.72;6271529;22;20016;-73
2023/04/18 03:47:20;;;;;;;0.03;0.03;;;;;;;7.96;90.41;101534.41;6275748;22;20007;-73
2023/04/18 03:49:45;;;;;;;0.00;0.00;;;;;;;7.98;89.94;101528.75;6249326;22;20072;-73
2023/04/18 03:52:11;;;;;;;0.00;0.00;;;;;;;7.88;90.16;101520.22;6272469;22;20367;-74
2023/04/18 03:54:36;;;;;;;0.00;0.00;;;;;;;8.02;89.84;101538.97;6277244;22;20406;-74
2023/04/18 03:57:02;;;;;;;0.00;0.00;;;;;;;8.00;89.51;101540.25;6222220;22;20014;-74
2023/04/18 03:59:28;;;;;;;0.00;0.00;;;;;;;8.00;89.21;101537.50;6249262;22;20441;-75
2023/04/18 04:01:53;;;;;;;0.00;0.00;;;;;;;8.05;89.23;101543.16;6249250;22;20007;-74
2023/04/18 04:04:19;;;;;;;0.00;0.00;;;;;;;8.07;89.45;101546.47;6225715;22;20444;-73
2023/04/18 04:06:44;;;;;;;0.00;0.00;;;;;;;8.16;89.00;101550.59;6228076;22;20090;-74
2023/04/18 04:09:13;;;;;;;0.00;0.00;;;;;;;8.06;88.59;101523.03;6250630;22;20031;-75
2023/04/18 04:11:38;;;;;;;0.00;0.00;;;;;;;8.07;88.61;101519.22;6263980;22;20019;-74
2023/04/18 04:14:04;;;;;;;0.00;0.00;;;;;;;8.20;88.25;101537.34;6218643;22;20011;-73
2023/04/18 04:16:29;;;;;;;0.00;0.00;;;;;;;8.16;88.48;101517.06;6221451;22;20011;-75
2023/04/18 04:18:55;;;;;;;0.00;0.00;;;;;;;8.31;88.04;101536.63;6246034;22;19996;-75
2023/04/18 04:21:20;;;;;;;0.00;0.00;;;;;;;8.20;87.65;101513.66;6197230;22;20082;-74
2023/04/18 04:23:46;;;;;;;0.00;0.00;;;;;;;8.39;87.32;101521.88;6222569;22;20027;-75
2023/04/18 04:26:13;;;;;;;0.00;0.00;;;;;;;8.53;87.06;101534.34;6246561;22;20000;-75
2023/04/18 04:28:42;;;;;;;0.00;0.00;;;;;;;8.47;86.38;101524.34;6248078;22;20445;-74
2023/04/18 04:31:09;;;;;;;0.00;0.00;;;;;;;8.47;85.85;101529.81;6245262;22;20475;-75
2023/04/18 04:33:37;;;;;;;0.00;0.00;;;;;;;8.45;85.67;101523.72;6274549;22;20083;-74
2023/04/18 04:36:04;;;;;;;0.00;0.00;;;;;;;8.48;85.96;101526.00;6220843;22;20030;-75
2023/04/18 04:38:29;;;;;;;0.00;0.00;;;;;;;8.46;85.78;101522.69;6197901;22;20010;-74
2023/04/18 04:40:56;;;;;;;0.00;0.00;;;;;;;8.45;85.47;101509.28;6222726;22;20086;-74
2023/04/18 04:43:24;;;;;;;0.00;0.00;;;;;;;8.39;85.48;101505.53;6243646;22;20003;-74
2023/04/18 04:45:51;;;;;;;0.00;0.00;;;;;;;8.42;85.30;101515.16;6221130;22;20065;-74
2023/04/18 04:48:18;;;;;;;0.00;0.00;;;;;;;8.52;85.70;101538.13;6217643;22;20008;-75
2023/04/18 04:50:54;;;;;;;0.00;0.00;;;;;;;8.52;85.11;101527.22;6246742;22;20458;-75
2023/04/18 04:53:19;;;;;;;0.00;0.00;;;;;;;8.48;85.05;101514.28;6243961;22;20149;-74
2023/04/18 04:55:45;;;;;;;0.00;0.00;;;;;;;8.62;85.06;101531.34;6245190;22;20453;-72
2023/04/18 04:58:10;;;;;;;0.00;0.00;;;;;;;8.62;84.44;101531.34;6268213;22;20010;-72
2023/04/18 05:00:36;;;;;;;0.00;0.00;;;;;;;8.51;84.49;101520.13;6246177;22;20303;-74
2023/04/18 05:03:01;;;;;;;0.00;0.00;;;;;;;8.50;84.37;101523.91;6197169;22;20091;-74
2023/04/18 05:05:27;;;;;;;0.00;0.00;;;;;;;8.43;84.23;101523.09;6193935;22;20039;-74
2023/04/18 05:07:53;;;;;;;0.00;0.00;;;;;;;8.34;84.15;101524.47;6246573;22;20018;-73
2023/04/18 05:10:18;;;;;;;0.00;0.00;;;;;;;8.47;84.55;101532.53;6245910;22;20431;-73
2023/04/18 05:12:44;;;;;;;0.00;0.00;;;;;;;8.51;83.50;101531.03;6269671;22;20073;-73
2023/04/18 05:15:09;;;;;;;0.00;0.00;;;;;;;8.49;83.47;101532.31;6221199;22;20513;-74
2023/04/18 05:17:35;;;;;;;0.00;0.00;;;;;;;8.42;83.97;101537.78;6193360;22;20061;-74
2023/04/18 05:20:00;;;;;;;0.00;0.00;;;;;;;8.41;83.87;101536.13;6221552;22;20011;-74
2023/04/18 05:22:26;;;;;;;0.00;0.00;;;;;;;8.42;83.69;101543.22;6271284;22;20008;-73
2023/04/18 05:24:51;;;;;;;0.00;0.00;;;;;;;8.42;83.92;101545.97;6247031;22;20004;-73
2023/04/18 05:27:17;;;;;;;0.00;0.00;;;;;;;8.43;83.76;101546.81;6222068;22;20008;-73
2023/04/18 05:29:43;;;;;;;0.00;0.00;;;;;;;8.31;83.96;101519.44;6193931;22;20083;-73
2023/04/18 05:32:09;;;;;;;0.00;0.00;;;;;;;8.46;83.83;101544.50;6248505;22;20034;-73
2023/04/18 05:34:37;;;;;;;0.00;0.00;;;;;;;8.37;83.66;101526.72;6295505;22;20063;-73
2023/04/18 05:37:02;;;;;;;0.00;0.00;;;;;;;8.52;83.27;101538.13;6247897;22;20003;-73
2023/04/18 05:39:28;;;;;;;0.00;0.00;;;;;;;8.76;82.85;101554.69;6244482;22;20015;-74
2023/04/18 05:41:53;;;;;;;0.00;0.00;;;;;;;8.76;82.05;101549.25;6221664;22;20095;-74
2023/04/18 05:44:18;;;;;;;0.00;0.00;;;;;;;8.75;82.16;101542.09;6246166;22;20082;-74
2023/04/18 05:46:45;;;;;;;0.00;0.00;;;;;;;8.78;81.86;101551.72;6244902;22;20019;-73
2023/04/18 05:49:18;;;;;;;0.00;0.00;;;;;;;8.65;82.22;101528.16;6247291;22;20358;-75
2023/04/18 05:51:43;;;;;;;0.00;0.00;;;;;;;8.73;81.90;101545.06;6245247;22;20093;-75
2023/04/18 05:54:09;;;;;;;0.00;0.00;;;;;;;8.88;81.36;101546.59;6246031;22;20549;-73
2023/04/18 05:56:35;;;;;;;0.00;0.00;;;;;;;8.89;81.57;101549.09;6242002;22;20023;-75
2023/04/18 05:59:01;;;;;;;0.00;0.00;;;;;;;8.89;81.60;101543.63;6220473;22;20007;-74
2023/04/18 06:01:26;;;;;;;0.00;0.00;;;;;;;9.00;81.02;101543.94;6244827;22;20003;-74
2023/04/18 06:03:53;;;;;;;0.00;0.00;;;;;;;9.17;80.42;101552.31;6270060;22;20045;-74
2023/04/18 06:06:18;;;;;;;0.08;0.08;;;;;;;9.32;79.95;101573.78;6271690;22;20100;-75
2023/04/18 06:08:44;;;;;;;0.00;0.00;;;;;;;9.33;79.69;101575.41;6269147;22;20031;-74
2023/04/18 06:11:09;;;;;;;0.00;0.00;;;;;;;9.36;79.28;101569.50;6251382;22;20026;-74
2023/04/18 06:13:36;;;;;;;0.00;0.00;;;;;;;9.38;79.02;101557.28;6249884;22;20061;-75
2023/04/18 06:16:01;;;;;;;0.00;0.00;;;;;;;9.41;78.77;101550.53;6270605;22;20027;-74
2023/04/18 06:18:27;;;;;;;0.00;0.00;;;;;;;9.52;78.38;101551.63;6250553;22;20003;-74
2023/04/18 06:20:53;;;;;;;0.00;0.00;;;;;;;9.63;78.11;101561.78;6298530;22;19999;-74
2023/04/18 06:23:18;;;;;;;0.00;0.00;;;;;;;9.72;77.86;101557.66;6275930;22;20015;-74
2023/04/18 06:25:44;;;;;;;0.00;0.00;;;;;;;9.73;77.47;101553.03;6220454;22;19999;-74
2023/04/18 06:28:09;;;;;;;0.00;0.00;;;;;;;9.78;77.18;101540.34;6225858;22;20333;-74
2023/04/18 06:30:35;;;;;;;0.00;0.00;;;;;;;9.91;76.94;101552.94;6251082;22;20470;-75
2023/04/18 06:33:01;;;;;;;0.00;0.00;;;;;;;10.02;76.42;101547.78;6244386;22;20315;-74
2023/04/18 06:35:29;;;;;;;0.00;0.00;;;;;;;10.13;75.97;101557.88;6274451;22;20456;-74
2023/04/18 06:37:55;;;;;;;0.00;0.00;;;;;;;10.13;75.76;101553.25;6294763;22;20028;-72
2023/04/18 06:40:24;;;;;;;0.00;0.00;;;;;;;10.25;75.47;101561.47;6273528;22;20090;-76
2023/04/18 06:42:49;;;;;;;0.00;0.00;;;;;;;10.27;75.02;101564.78;6275191;22;20003;-75
2023/04/18 06:45:15;;;;;;;0.00;0.00;;;;;;;10.39;74.90;101555.81;6275653;22;20011;-74
2023/04/18 06:47:43;;;;;;;0.00;0.00;;;;;;;10.57;74.09;101561.16;6275696;22;20366;-74
2023/04/18 06:50:09;;;;;;;0.00;0.00;;;;;;;10.58;73.74;101549.13;6270886;22;20446;-73
2023/04/18 06:52:39;;;;;;;0.00;0.00;;;;;;;10.79;73.71;101558.66;6300125;22;20003;-73
2023/04/18 06:55:06;;;;;;;0.00;0.00;;;;;;;10.96;72.78;101564.19;6271719;22;20030;-73
2023/04/18 06:57:32;;;;;;;0.00;0.00;;;;;;;11.12;72.32;101570.00;6300966;22;20070;-73
2023/04/18 06:59:57;;;;;;;0.00;0.00;;;;;;;11.24;71.68;101557.09;6243944;22;20045;-73
2023/04/18 07:02:23;;;;;;;0.00;0.00;;;;;;;11.33;70.89;101558.41;6249951;22;20007;-74
2023/04/18 07:04:49;;;;;;;0.00;0.00;;;;;;;11.45;70.62;101558.34;6224388;22;20014;-78
2023/04/18 07:07:16;;;;;;;0.00;0.00;;;;;;;11.50;70.64;101549.41;6302127;22;20003;-80
2023/04/18 07:09:42;;;;;;;0.00;0.00;;;;;;;11.59;70.26;101547.91;6274947;22;20007;-79
2023/04/18 07:12:07;;;;;;;0.00;0.00;;;;;;;11.68;68.95;101540.13;6251842;22;20331;-78
2023/04/18 07:14:33;;;;;;;0.00;0.00;;;;;;;11.70;67.81;101541.56;6227043;22;20031;-78
2023/04/18 07:17:00;;;;;;;0.00;0.00;;;;;;;11.39;68.11;101534.69;6277892;22;19999;-80
2023/04/18 07:19:26;;;;;;;0.00;0.00;;;;;;;11.12;68.88;101551.66;6304800;22;20030;-79
2023/04/18 07:21:51;;;;;;;0.00;0.00;;;;;;;10.90;69.94;101539.72;6278898;22;20015;-78
2023/04/18 07:24:22;;;;;;;0.00;0.00;;;;;;;10.92;70.34;101546.63;6277058;22;20356;-80
2023/04/18 07:26:48;;;;;;;0.00;0.00;;;;;;;10.86;70.27;101539.34;6277879;22;20011;-79
2023/04/18 07:29:13;;;;;;;0.00;0.00;;;;;;;10.75;69.84;101532.00;6275326;22;20019;-79
2023/04/18 07:31:41;;;;;;;0.00;0.00;;;;;;;10.64;70.06;101522.72;6253232;22;20003;-79
2023/04/18 07:34:08;;;;;;;0.00;0.00;;;;;;;10.73;70.20;101523.19;6305332;22;20010;-78
2023/04/18 07:36:33;;;;;;;0.00;0.00;;;;;;;10.93;70.11;101529.09;6275480;22;20007;-79
2023/04/18 07:39:02;;;;;;;0.00;0.00;;;;;;;11.21;69.88;101513.78;6306354;22;19995;-79
2023/04/18 07:41:28;;;;;;;0.00;0.00;;;;;;;11.41;68.75;101523.50;6271746;22;20063;-79
2023/04/18 07:44:02;;;;;;;0.00;0.00;;;;;;;11.60;68.20;101535.91;6222606;22;20035;-79
2023/04/18 07:46:51;;;;;;;0.00;0.00;;;;;;;12.12;66.90;101531.31;6276357;22;20445;-79
2023/04/18 07:49:19;;;;;;;0.00;0.00;;;;;;;12.44;65.61;101541.69;6263968;22;20361;-78
2023/04/18 07:51:44;;;;;;;0.00;0.00;;;;;;;12.53;65.22;101523.75;6248306;22;20018;-79
2023/04/18 07:54:17;;;;;;;0.00;0.00;;;;;;;12.56;65.03;101501.28;6275616;22;20007;-79
2023/04/18 07:56:52;;;;;;;0.00;0.00;;;;;;;12.63;64.56;101509.31;6229377;22;20034;-79
2023/04/18 07:59:41;;;;;;;;;;;;;;;;;;;;;
2023/04/18 08:02:18;;;;;;;0.00;0.00;;;;;;;12.58;64.77;101518.31;6301731;22;20082;-78
2023/04/18 08:05:02;;;;;;;0.00;0.00;;;;;;;12.41;65.27;101510.09;6227286;22;20023;-80
2023/04/18 08:07:55;;;;;;;0.00;0.00;;;;;;;12.29;64.51;101518.44;6226049;22;20007;-79
2023/04/18 08:10:23;;;;;;;0.00;0.00;;;;;;;12.36;65.02;101519.09;6263380;22;20090;-78
2023/04/18 08:12:54;;;;;;;0.00;0.00;;;;;;;12.52;64.37;101527.56;6279199;22;20019;-78
2023/04/18 08:15:22;;;;;;;0.00;0.00;;;;;;;12.61;63.07;101525.22;6279628;22;20493;-79
2023/04/18 08:17:47;;;;;;;0.00;0.00;;;;;;;12.77;62.51;101523.50;6253227;22;20006;-79
2023/04/18 08:20:35;;;;;;;0.00;0.00;;;;;;;12.99;61.80;101532.56;6253811;22;20003;-79
2023/04/18 08:23:04;;;;;;;0.00;0.00;;;;;;;12.99;61.59;101505.13;6279462;22;20003;-78
2023/04/18 08:25:58;;;;;;;0.00;0.00;;;;;;;13.29;61.61;101514.81;6279641;22;20013;-79
2023/04/18 08:28:31;;;;;;;0.00;0.00;;;;;;;13.66;61.18;101500.38;6284831;22;20033;-78
2023/04/18 08:31:15;;;;;;;0.00;0.00;;;;;;;14.59;59.23;101503.84;6277814;22;20003;-79
2023/04/18 08:33:51;;;;;;;0.00;0.00;;;;;;;16.58;53.95;101507.22;6255600;22;20007;-79
2023/04/18 08:36:36;;;;;;;0.00;0.00;;;;;;;16.09;51.64;101525.22;6229259;22;20003;-79
2023/04/18 08:39:32;;;;;;;0.00;0.00;;;;;;;15.63;53.91;101525.16;6274461;22;20017;-79
2023/04/18 08:42:20;;;;;;;0.00;0.00;;;;;;;15.35;53.32;101488.72;6245282;22;20334;-79
2023/04/18 08:45:08;;;;;;;0.00;0.00;;;;;;;15.35;53.83;101538.34;6245606;22;20010;-79
2023/04/18 08:47:45;;;;;;;0.00;0.00;;;;;;;15.60;53.82;101490.69;6246410;22;20053;-79
2023/04/18 08:50:28;;;;;;;0.00;0.00;;;;;;;18.12;49.41;101500.00;6242330;22;20654;-79
2023/04/18 08:53:04;;;;;;;;;;;;;;;;;;;;;
2023/04/18 08:55:35;;;;;;;0.00;0.00;;;;;;;18.98;44.48;101489.13;6278460;22;20441;-79
2023/04/18 08:58:01;;;;;;;0.00;0.00;;;;;;;18.49;45.63;101501.31;6243954;22;19991;-78
2023/04/18 09:00:28;;;;;;;0.00;0.00;;;;;;;19.41;45.43;101517.94;6220232;22;20011;-79
2023/04/18 09:03:08;;;;;;;0.00;0.00;;;;;;;20.49;42.79;101505.06;6246178;22;20006;-79
2023/04/18 09:05:47;;;;;;;;;;;;;;;;;;;;;
2023/04/18 09:08:25;;;;;;;0.00;0.00;;;;;;;19.85;40.67;101513.97;6279844;22;20106;-79
2023/04/18 09:14:25;;;;;;;0.00;0.00;;;;;;;17.68;44.67;101503.66;6209486;22;20069;-79
2023/04/18 09:16:50;;;;;;;0.00;0.00;;;;;;;17.27;45.32;101499.22;6223531;22;20010;-78
2023/04/18 09:19:18;;;;;;;0.00;0.00;;;;;;;17.05;46.37;101502.38;6218251;22;20098;-79
2023/04/18 09:21:47;;;;;;;0.00;0.00;;;;;;;16.80;45.36;101490.28;6249637;22;20083;-79
2023/04/18 09:24:23;;;;;;;0.00;0.00;;;;;;;16.74;46.45;101508.81;6246343;22;20007;-78
2023/04/18 09:26:50;;;;;;;0.00;0.00;;;;;;;18.11;45.81;101509.44;6249977;22;20003;-79
2023/04/18 09:29:17;;;;;;;0.00;0.00;;;;;;;18.52;43.66;101500.72;6227145;22;20050;-78
2023/04/18 09:32:00;;;;;;;0.00;0.00;;;;;;;19.36;42.94;101491.06;6252169;22;20005;-79
2023/04/18 09:34:26;;;;;;;0.00;0.00;;;;;;;24.04;35.66;101498.59;6254638;22;20012;-78
2023/04/18 09:37:07;;;;;;;0.00;0.00;;;;;;;24.81;32.51;101512.66;6251740;22;20418;-77
2023/04/18 09:39:32;;;;;;;0.00;0.00;;;;;;;23.73;33.39;101507.13;6249888;22;20057;-78
2023/04/18 09:41:59;;;;;;;0.00;0.00;;;;;;;24.14;33.43;101501.03;6276907;22;19996;-78
2023/04/18 09:44:25;;;;;;;0.00;0.00;;;;;;;27.37;30.17;101485.28;6224826;22;20012;-80
2023/04/18 09:46:50;;;;;;;0.00;0.00;;;;;;;30.27;26.19;101489.81;6249993;22;20007;-78
2023/04/18 09:49:22;;;;;;;0.00;0.00;;;;;;;33.01;23.17;101486.66;6249855;22;20008;-79
2023/04/18 09:51:58;;;;;;;0.00;0.00;;;;;;;34.74;21.83;101489.94;6248631;22;20008;-79
2023/04/18 09:54:24;;;;;;;0.00;0.00;;;;;;;35.85;20.17;101493.66;6249592;22;20385;-80
2023/04/18 09:56:52;;;;;;;0.00;0.00;;;;;;;36.23;18.93;101477.56;6247997;22;20138;-79
2023/04/18 09:59:30;;;;;;;0.00;0.00;;;;;;;36.07;18.82;101475.25;6199469;22;20315;-78
2023/04/18 10:02:02;;;;;;;0.00;0.00;;;;;;;32.21;20.52;101473.09;6252155;22;20321;-80
2023/04/18 10:04:33;;;;;;;0.00;0.00;;;;;;;30.62;22.47;101456.91;6224676;22;20015;-79
2023/04/18 10:06:59;;;;;;;0.00;0.00;;;;;;;31.96;21.93;101446.16;6279054;22;20040;-79
2023/04/18 10:09:28;;;;;;;0.00;0.00;;;;;;;33.73;19.69;101441.59;6249833;22;20014;-79
2023/04/18 10:11:54;;;;;;;0.00;0.00;;;;;;;34.99;18.73;101446.50;6224755;22;20015;-80
2023/04/18 10:14:21;;;;;;;0.00;0.00;;;;;;;35.72;18.11;101448.63;6225061;22;20014;-78
2023/04/18 10:16:47;;;;;;;0.00;0.00;;;;;;;36.80;17.72;101442.06;6249054;22;20018;-80
2023/04/18 10:19:24;;;;;;;0.00;0.00;;;;;;;37.57;17.15;101431.34;6198002;22;20365;-80
2023/04/18 10:22:00;;;;;;;0.00;0.00;;;;;;;39.83;15.09;101442.63;6248910;22;20078;-79
2023/04/18 10:24:47;;;;;;;0.00;0.00;;;;;;;39.30;14.36;101456.91;6249707;22;20038;-79
2023/04/18 10:27:14;;;;;;;0.00;0.00;;;;;;;39.55;14.48;101449.81;6277753;22;20004;-78
2023/04/18 10:29:54;;;;;;;0.00;0.00;;;;;;;39.02;15.38;101421.94;6250950;22;20003;-79
2023/04/18 10:32:29;;;;;;;0.00;0.00;;;;;;;39.85;14.12;101433.59;6248582;22;20049;-79
2023/04/18 10:34:55;;;;;;;0.00;0.00;;;;;;;40.64;13.37;101426.69;6248060;22;20141;-78
2023/04/18 10:37:20;;;;;;;0.00;0.00;;;;;;;40.29;12.72;101428.41;6200861;22;20037;-79
2023/04/18 10:39:53;;;;;;;0.00;0.00;;;;;;;40.73;13.33;101431.75;6251640;22;20014;-79
2023/04/18 10:42:38;;;;;;;0.00;0.00;;;;;;;41.53;12.79;101424.50;6251054;22;20008;-79
2023/04/18 10:45:23;;;;;;;0.00;0.00;;;;;;;40.31;12.95;101425.91;6278423;22;20007;-77
2023/04/18 10:47:49;;;;;;;0.00;0.00;;;;;;;41.11;12.83;101425.34;6249871;22;20007;-79
2023/04/18 10:50:15;;;;;;;0.00;0.00;;;;;;;41.67;12.41;101421.16;6250035;22;20010;-80
2023/04/18 10:52:43;;;;;;;0.00;0.00;;;;;;;40.40;13.29;101400.28;6276893;22;20004;-79
2023/04/18 10:55:16;;;;;;;0.00;0.00;;;;;;;38.23;14.34;101409.13;6274009;22;20424;-78
2023/04/18 10:57:50;;;;;;;0.00;0.00;;;;;;;34.93;16.08;101401.47;6249372;22;20077;-80
2023/04/18 11:00:25;;;;;;;0.00;0.00;;;;;;;33.52;17.05;101382.84;6249699;22;20010;-79
2023/04/18 11:02:54;;;;;;;0.00;0.00;;;;;;;34.47;17.45;101393.84;6226453;22;20077;-76
2023/04/18 11:05:23;;;;;;;0.00;0.00;;;;;;;34.91;16.74;101378.31;6242984;22;20503;-79
2023/04/18 11:07:49;;;;;;;0.00;0.00;;;;;;;36.70;15.31;101371.75;6250238;22;20007;-80
2023/04/18 11:10:23;;;;;;;0.00;0.00;;;;;;;37.42;14.90;101387.97;6250966;22;20359;-79
2023/04/18 11:12:51;;;;;;;0.00;0.00;;;;;;;34.69;16.25;101382.44;6220253;22;20343;-77
2023/04/18 11:15:20;;;;;;;0.00;0.00;;;;;;;34.37;16.92;101366.28;6242634;23;20418;-77
2023/04/18 11:18:15;;;;;;;0.00;0.00;;;;;;;37.65;15.31;101387.19;6243047;23;20012;-78
2023/04/18 11:20:50;;;;;;;0.00;0.00;;;;;;;41.30;13.00;101385.47;6243815;23;20022;-78
2023/04/18 11:23:22;;;;;;;0.00;0.00;;;;;;;42.28;11.45;101371.59;6217661;23;20030;-79
2023/04/18 11:25:55;;;;;;;0.00;0.00;;;;;;;42.78;10.33;101378.38;6241688;23;20007;-78
2023/04/18 11:28:26;;;;;;;0.00;0.00;;;;;;;42.36;10.84;101372.94;6242994;23;20004;-78
2023/04/18 11:30:56;;;;;;;0.00;0.00;;;;;;;40.79;11.22;101352.53;6215655;23;20012;-78
2023/04/18 11:33:23;;;;;;;0.00;0.00;;;;;;;39.83;11.91;101351.03;6216994;23;20004;-78
2023/04/18 11:35:49;;;;;;;0.00;0.00;;;;;;;40.46;12.35;101369.06;6194208;23;20034;-78
2023/04/18 11:38:15;;;;;;;0.00;0.00;;;;;;;37.43;13.34;101363.91;6191115;23;20480;-78
2023/04/18 11:40:49;;;;;;;0.00;0.00;;;;;;;34.56;15.01;101354.47;6219080;23;20011;-78
2023/04/18 11:43:32;;;;;;;0.00;0.00;;;;;;;34.55;15.74;101335.84;6216759;23;20008;-78